sensor_id;sensor_type;location;lat;lon;timestamp;pressure;altitude;pressure_sealevel;temperature;humidity
51081;BME280;37130;55.670;37.596;2023-10-19T00:01:24;98508.91;;;5.86;83.93
51081;BME280;37130;55.670;37.596;2023-10-19T00:03:53;98425.69;;;5.30;83.95
51081;BME280;37130;55.670;37.596;2023-10-19T00:06:23;98489.38;;;5.73;83.96
51081;BME280;37130;55.670;37.596;2023-10-19T00:08:51;98463.44;;;5.46;83.85
51081;BME280;37130;55.670;37.596;2023-10-19T00:11:19;98516.88;;;5.85;83.71
51081;BME280;37130;55.670;37.596;2023-10-19T00:13:52;98505.56;;;5.83;84.04
51081;BME280;37130;55.670;37.596;2023-10-19T00:16:25;98522.03;;;5.86;84.17
51081;BME280;37130;55.670;37.596;2023-10-19T00:19:03;98514.03;;;5.89;84.26
51081;BME280;37130;55.670;37.596;2023-10-19T00:21:31;98517.19;;;5.98;83.98
51081;BME280;37130;55.670;37.596;2023-10-19T00:24:17;98513.47;;;6.02;84.34
51081;BME280;37130;55.670;37.596;2023-10-19T00:26:45;98519.72;;;5.99;84.13
51081;BME280;37130;55.670;37.596;2023-10-19T00:29:15;98502.41;;;5.95;83.79
51081;BME280;37130;55.670;37.596;2023-10-19T00:32:00;98511.06;;;5.97;83.50
51081;BME280;37130;55.670;37.596;2023-10-19T00:34:30;98515.47;;;5.97;83.65
51081;BME280;37130;55.670;37.596;2023-10-19T00:36:59;98478.44;;;5.82;83.78
51081;BME280;37130;55.670;37.596;2023-10-19T00:39:35;98483.91;;;5.78;83.78
51081;BME280;37130;55.670;37.596;2023-10-19T00:42:15;98497.63;;;5.84;83.35
51081;BME280;37130;55.670;37.596;2023-10-19T00:44:47;98511.66;;;5.83;83.65
51081;BME280;37130;55.670;37.596;2023-10-19T00:47:18;98500.16;;;5.86;83.43
51081;BME280;37130;55.670;37.596;2023-10-19T00:49:51;98505.50;;;5.84;83.55
51081;BME280;37130;55.670;37.596;2023-10-19T00:52:21;98512.31;;;5.88;83.66
51081;BME280;37130;55.670;37.596;2023-10-19T00:54:51;98513.84;;;5.74;83.32
51081;BME280;37130;55.670;37.596;2023-10-19T00:57:20;98492.56;;;5.61;83.66
51081;BME280;37130;55.670;37.596;2023-10-19T00:59:50;98509.88;;;5.84;83.72
51081;BME280;37130;55.670;37.596;2023-10-19T01:02:21;98510.94;;;6.00;83.61
51081;BME280;37130;55.670;37.596;2023-10-19T01:04:57;98499.69;;;5.97;84.02
51081;BME280;37130;55.670;37.596;2023-10-19T01:07:33;98508.00;;;6.06;83.33
51081;BME280;37130;55.670;37.596;2023-10-19T01:10:08;98510.84;;;6.02;83.65
51081;BME280;37130;55.670;37.596;2023-10-19T01:12:36;98518.03;;;5.98;83.41
51081;BME280;37130;55.670;37.596;2023-10-19T01:15:09;98514.25;;;6.04;83.44
51081;BME280;37130;55.670;37.596;2023-10-19T01:17:48;98508.22;;;6.02;83.54
51081;BME280;37130;55.670;37.596;2023-10-19T01:20:28;98501.53;;;5.95;83.82
51081;BME280;37130;55.670;37.596;2023-10-19T01:23:01;98497.22;;;5.93;84.01
51081;BME280;37130;55.670;37.596;2023-10-19T01:25:46;98506.28;;;5.86;83.29
51081;BME280;37130;55.670;37.596;2023-10-19T01:28:17;98503.16;;;5.78;84.19
51081;BME280;37130;55.670;37.596;2023-10-19T01:30:45;98503.78;;;5.83;83.54
51081;BME280;37130;55.670;37.596;2023-10-19T01:33:13;98495.34;;;5.77;83.58
51081;BME280;37130;55.670;37.596;2023-10-19T01:35:43;98497.53;;;5.67;83.75
51081;BME280;37130;55.670;37.596;2023-10-19T01:38:29;98504.06;;;5.58;84.51
51081;BME280;37130;55.670;37.596;2023-10-19T01:40:59;98496.09;;;5.60;84.17
51081;BME280;37130;55.670;37.596;2023-10-19T01:43:28;98459.59;;;5.35;84.12
51081;BME280;37130;55.670;37.596;2023-10-19T01:45:59;98489.84;;;5.43;84.40
51081;BME280;37130;55.670;37.596;2023-10-19T01:48:43;98495.47;;;5.55;84.63
51081;BME280;37130;55.670;37.596;2023-10-19T01:51:14;98489.34;;;5.54;83.79
51081;BME280;37130;55.670;37.596;2023-10-19T01:53:42;98495.84;;;5.66;84.10
51081;BME280;37130;55.670;37.596;2023-10-19T01:56:15;98501.59;;;5.74;83.87
51081;BME280;37130;55.670;37.596;2023-10-19T01:58:46;98497.09;;;5.76;83.46
51081;BME280;37130;55.670;37.596;2023-10-19T02:01:15;98479.50;;;5.59;84.09
51081;BME280;37130;55.670;37.596;2023-10-19T02:04:03;98497.44;;;5.68;83.72
51081;BME280;37130;55.670;37.596;2023-10-19T02:06:33;98489.47;;;5.71;83.69
51081;BME280;37130;55.670;37.596;2023-10-19T02:09:10;98489.47;;;5.71;83.76
51081;BME280;37130;55.670;37.596;2023-10-19T02:11:51;98496.53;;;5.69;84.35
51081;BME280;37130;55.670;37.596;2023-10-19T02:14:31;98495.63;;;5.70;83.73
51081;BME280;37130;55.670;37.596;2023-10-19T02:17:03;98492.94;;;5.72;83.97
51081;BME280;37130;55.670;37.596;2023-10-19T02:19:32;98497.25;;;5.73;84.04
51081;BME280;37130;55.670;37.596;2023-10-19T02:22:04;98495.41;;;5.75;83.64
51081;BME280;37130;55.670;37.596;2023-10-19T02:24:36;98488.38;;;5.76;83.61
51081;BME280;37130;55.670;37.596;2023-10-19T02:27:04;98489.16;;;5.78;84.10
51081;BME280;37130;55.670;37.596;2023-10-19T02:29:35;98492.44;;;5.83;83.45
51081;BME280;37130;55.670;37.596;2023-10-19T02:32:04;98495.22;;;5.80;83.60
51081;BME280;37130;55.670;37.596;2023-10-19T02:34:32;98478.81;;;5.75;83.57
51081;BME280;37130;55.670;37.596;2023-10-19T02:37:02;98489.22;;;5.76;83.08
51081;BME280;37130;55.670;37.596;2023-10-19T02:39:30;98436.75;;;5.37;83.64
51081;BME280;37130;55.670;37.596;2023-10-19T02:41:58;98487.81;;;5.69;83.42
51081;BME280;37130;55.670;37.596;2023-10-19T02:44:29;98494.91;;;5.67;83.73
51081;BME280;37130;55.670;37.596;2023-10-19T02:46:59;98496.47;;;5.71;83.54
51081;BME280;37130;55.670;37.596;2023-10-19T02:49:29;98488.03;;;5.64;83.83
51081;BME280;37130;55.670;37.596;2023-10-19T02:51:57;98501.59;;;5.74;84.05
51081;BME280;37130;55.670;37.596;2023-10-19T02:54:31;98500.66;;;5.75;84.11
51081;BME280;37130;55.670;37.596;2023-10-19T02:57:03;98438.38;;;5.39;83.88
51081;BME280;37130;55.670;37.596;2023-10-19T02:59:36;98471.19;;;5.68;83.97
51081;BME280;37130;55.670;37.596;2023-10-19T03:02:04;98489.00;;;5.81;84.12
51081;BME280;37130;55.670;37.596;2023-10-19T03:04:44;98497.69;;;5.83;83.79
51081;BME280;37130;55.670;37.596;2023-10-19T03:07:14;98495.69;;;5.88;83.30
51081;BME280;37130;55.670;37.596;2023-10-19T03:09:43;98444.84;;;5.51;83.35
51081;BME280;37130;55.670;37.596;2023-10-19T03:12:18;98487.31;;;5.80;84.04
51081;BME280;37130;55.670;37.596;2023-10-19T03:14:45;98459.91;;;5.66;83.42
51081;BME280;37130;55.670;37.596;2023-10-19T03:17:16;98489.94;;;5.80;83.86
51081;BME280;37130;55.670;37.596;2023-10-19T03:19:44;98488.13;;;5.82;83.92
51081;BME280;37130;55.670;37.596;2023-10-19T03:22:13;98493.91;;;5.88;83.40
51081;BME280;37130;55.670;37.596;2023-10-19T03:24:42;98484.75;;;5.78;83.78
51081;BME280;37130;55.670;37.596;2023-10-19T03:27:12;98491.72;;;5.79;84.06
51081;BME280;37130;55.670;37.596;2023-10-19T03:29:58;98457.44;;;5.63;83.49
51081;BME280;37130;55.670;37.596;2023-10-19T03:32:28;98496.63;;;5.87;83.88
51081;BME280;37130;55.670;37.596;2023-10-19T03:35:03;98491.44;;;5.85;83.58
51081;BME280;37130;55.670;37.596;2023-10-19T03:37:32;98484.50;;;5.84;83.36
51081;BME280;37130;55.670;37.596;2023-10-19T03:40:03;98485.41;;;5.83;83.39
51081;BME280;37130;55.670;37.596;2023-10-19T03:42:36;98487.31;;;5.80;83.68
51081;BME280;37130;55.670;37.596;2023-10-19T03:45:13;98489.16;;;5.78;83.80
51081;BME280;37130;55.670;37.596;2023-10-19T03:47:40;98443.28;;;5.47;83.89
51081;BME280;37130;55.670;37.596;2023-10-19T03:50:10;98490.66;;;5.83;83.58
51081;BME280;37130;55.670;37.596;2023-10-19T03:52:42;98434.41;;;5.49;83.80
51081;BME280;37130;55.670;37.596;2023-10-19T03:55:10;98462.75;;;5.62;83.52
51081;BME280;37130;55.670;37.596;2023-10-19T03:57:45;98423.84;;;5.32;84.32
51081;BME280;37130;55.670;37.596;2023-10-19T04:00:23;98499.66;;;5.78;83.92
51081;BME280;37130;55.670;37.596;2023-10-19T04:02:56;98500.09;;;5.87;84.50
51081;BME280;37130;55.670;37.596;2023-10-19T04:05:26;98428.38;;;5.47;83.93
51081;BME280;37130;55.670;37.596;2023-10-19T04:07:55;98504.94;;;5.97;84.23
51081;BME280;37130;55.670;37.596;2023-10-19T04:10:26;98505.13;;;5.92;84.37
51081;BME280;37130;55.670;37.596;2023-10-19T04:12:57;98502.59;;;5.90;83.49
51081;BME280;37130;55.670;37.596;2023-10-19T04:15:28;98480.22;;;5.82;83.86
51081;BME280;37130;55.670;37.596;2023-10-19T04:17:56;98501.00;;;5.86;83.43
51081;BME280;37130;55.670;37.596;2023-10-19T04:20:26;98499.25;;;5.87;83.93
51081;BME280;37130;55.670;37.596;2023-10-19T04:22:53;98494.84;;;5.87;83.23
51081;BME280;37130;55.670;37.596;2023-10-19T04:25:21;98498.13;;;5.92;83.93
51081;BME280;37130;55.670;37.596;2023-10-19T04:27:53;98450.75;;;5.75;83.64
51081;BME280;37130;55.670;37.596;2023-10-19T04:30:21;98506.22;;;6.07;83.15
51081;BME280;37130;55.670;37.596;2023-10-19T04:32:55;98503.69;;;6.05;83.26
51081;BME280;37130;55.670;37.596;2023-10-19T04:35:26;98493.09;;;6.07;83.27
51081;BME280;37130;55.670;37.596;2023-10-19T04:37:57;98486.56;;;5.97;83.91
51081;BME280;37130;55.670;37.596;2023-10-19T04:40:25;98504.81;;;6.00;83.59
51081;BME280;37130;55.670;37.596;2023-10-19T04:42:56;98454.22;;;5.76;83.59
51081;BME280;37130;55.670;37.596;2023-10-19T04:45:24;98496.28;;;6.13;83.46
51081;BME280;37130;55.670;37.596;2023-10-19T04:47:52;98460.91;;;5.83;83.07
51081;BME280;37130;55.670;37.596;2023-10-19T04:50:20;98494.81;;;6.08;83.06
51081;BME280;37130;55.670;37.596;2023-10-19T04:52:50;98453.66;;;5.88;83.56
51081;BME280;37130;55.670;37.596;2023-10-19T04:55:18;98435.63;;;5.80;83.77
51081;BME280;37130;55.670;37.596;2023-10-19T04:57:48;98496.94;;;6.19;83.47
51081;BME280;37130;55.670;37.596;2023-10-19T05:00:17;98508.13;;;6.22;83.66
51081;BME280;37130;55.670;37.596;2023-10-19T05:02:48;98497.06;;;6.15;83.09
51081;BME280;37130;55.670;37.596;2023-10-19T05:05:16;98502.41;;;6.14;83.36
51081;BME280;37130;55.670;37.596;2023-10-19T05:07:44;98425.25;;;5.77;83.26
51081;BME280;37130;55.670;37.596;2023-10-19T05:10:12;98507.78;;;6.30;83.44
51081;BME280;37130;55.670;37.596;2023-10-19T05:12:39;98503.53;;;6.27;82.59
51081;BME280;37130;55.670;37.596;2023-10-19T05:15:07;98504.94;;;6.34;82.43
51081;BME280;37130;55.670;37.596;2023-10-19T05:17:36;98458.13;;;6.05;82.08
51081;BME280;37130;55.670;37.596;2023-10-19T05:20:03;98511.19;;;6.32;81.57
51081;BME280;37130;55.670;37.596;2023-10-19T05:22:33;98509.41;;;6.32;82.00
51081;BME280;37130;55.670;37.596;2023-10-19T05:25:01;98507.56;;;6.34;82.46
51081;BME280;37130;55.670;37.596;2023-10-19T05:27:30;98456.22;;;6.08;82.00
51081;BME280;37130;55.670;37.596;2023-10-19T05:30:00;98510.38;;;6.49;81.37
51081;BME280;37130;55.670;37.596;2023-10-19T05:32:33;98436.13;;;5.88;82.17
51081;BME280;37130;55.670;37.596;2023-10-19T05:35:00;98519.41;;;6.43;81.47
51081;BME280;37130;55.670;37.596;2023-10-19T05:37:33;98522.88;;;6.44;82.20
51081;BME280;37130;55.670;37.596;2023-10-19T05:40:04;98517.72;;;6.42;81.34
51081;BME280;37130;55.670;37.596;2023-10-19T05:42:32;98486.41;;;6.19;81.75
51081;BME280;37130;55.670;37.596;2023-10-19T05:45:02;98530.09;;;6.57;81.64
51081;BME280;37130;55.670;37.596;2023-10-19T05:47:31;98505.19;;;6.47;81.37
51081;BME280;37130;55.670;37.596;2023-10-19T05:50:00;98425.06;;;6.01;81.02
51081;BME280;37130;55.670;37.596;2023-10-19T05:52:33;98513.56;;;6.55;81.43
51081;BME280;37130;55.670;37.596;2023-10-19T05:55:01;98521.84;;;6.65;80.87
51081;BME280;37130;55.670;37.596;2023-10-19T05:57:33;98490.94;;;6.51;80.62
51081;BME280;37130;55.670;37.596;2023-10-19T06:00:04;98489.47;;;6.46;81.03
51081;BME280;37130;55.670;37.596;2023-10-19T06:02:46;98528.34;;;6.75;80.42
51081;BME280;37130;55.670;37.596;2023-10-19T06:05:15;98525.03;;;6.72;80.32
51081;BME280;37130;55.670;37.596;2023-10-19T06:07:47;98531.13;;;6.72;81.04
51081;BME280;37130;55.670;37.596;2023-10-19T06:10:17;98505.31;;;6.63;81.01
51081;BME280;37130;55.670;37.596;2023-10-19T06:12:48;98525.56;;;6.78;80.40
51081;BME280;37130;55.670;37.596;2023-10-19T06:15:21;98516.97;;;6.75;80.33
51081;BME280;37130;55.670;37.596;2023-10-19T06:17:56;98525.44;;;6.82;80.59
51081;BME280;37130;55.670;37.596;2023-10-19T06:20:24;98479.75;;;6.65;80.47
51081;BME280;37130;55.670;37.596;2023-10-19T06:22:53;98518.47;;;7.15;80.40
51081;BME280;37130;55.670;37.596;2023-10-19T06:25:24;98525.72;;;7.28;79.82
51081;BME280;37130;55.670;37.596;2023-10-19T06:27:52;98529.69;;;7.36;79.17
51081;BME280;37130;55.670;37.596;2023-10-19T06:30:21;98528.75;;;7.37;78.92
51081;BME280;37130;55.670;37.596;2023-10-19T06:32:52;98528.78;;;7.53;78.84
51081;BME280;37130;55.670;37.596;2023-10-19T06:35:21;98529.25;;;7.61;78.15
51081;BME280;37130;55.670;37.596;2023-10-19T06:37:49;98527.03;;;7.69;77.82
51081;BME280;37130;55.670;37.596;2023-10-19T06:40:17;98527.81;;;7.72;77.86
51081;BME280;37130;55.670;37.596;2023-10-19T06:42:46;98526.34;;;7.83;77.59
51081;BME280;37130;55.670;37.596;2023-10-19T06:45:14;98527.69;;;7.90;77.69
51081;BME280;37130;55.670;37.596;2023-10-19T06:47:44;98515.81;;;7.99;77.71
51081;BME280;37130;55.670;37.596;2023-10-19T06:50:17;98472.25;;;7.76;77.25
51081;BME280;37130;55.670;37.596;2023-10-19T06:52:45;98522.25;;;8.09;76.66
51081;BME280;37130;55.670;37.596;2023-10-19T06:55:16;98520.38;;;8.11;76.66
51081;BME280;37130;55.670;37.596;2023-10-19T06:57:50;98528.25;;;8.45;76.07
51081;BME280;37130;55.670;37.596;2023-10-19T07:00:20;98515.78;;;8.78;74.65
51081;BME280;37130;55.670;37.596;2023-10-19T07:02:55;98504.34;;;8.94;74.00
51081;BME280;37130;55.670;37.596;2023-10-19T07:05:23;98472.53;;;8.95;73.97
51081;BME280;37130;55.670;37.596;2023-10-19T07:07:57;98440.06;;;8.79;72.97
51081;BME280;37130;55.670;37.596;2023-10-19T07:10:27;98455.84;;;8.81;73.76
51081;BME280;37130;55.670;37.596;2023-10-19T07:12:56;98492.50;;;8.85;72.94
51081;BME280;37130;55.670;37.596;2023-10-19T07:15:25;98531.38;;;8.83;73.12
51081;BME280;37130;55.670;37.596;2023-10-19T07:17:54;98542.03;;;8.66;73.63
51081;BME280;37130;55.670;37.596;2023-10-19T07:20:22;98503.72;;;8.27;73.72
51081;BME280;37130;55.670;37.596;2023-10-19T07:22:54;98527.59;;;8.41;74.09
51081;BME280;37130;55.670;37.596;2023-10-19T07:25:23;98543.84;;;8.49;73.58
51081;BME280;37130;55.670;37.596;2023-10-19T07:27:53;98541.50;;;8.59;74.47
51081;BME280;37130;55.670;37.596;2023-10-19T07:30:21;98535.88;;;8.81;73.46
51081;BME280;37130;55.670;37.596;2023-10-19T07:32:53;98542.03;;;9.26;74.12
51081;BME280;37130;55.670;37.596;2023-10-19T07:35:27;98542.28;;;9.52;73.49
51081;BME280;37130;55.670;37.596;2023-10-19T07:37:55;98547.38;;;9.55;72.93
51081;BME280;37130;55.670;37.596;2023-10-19T07:40:24;98542.66;;;9.60;71.86
51081;BME280;37130;55.670;37.596;2023-10-19T07:42:52;98557.22;;;9.67;72.04
51081;BME280;37130;55.670;37.596;2023-10-19T07:45:22;98549.09;;;9.70;70.97
51081;BME280;37130;55.670;37.596;2023-10-19T07:47:49;98545.97;;;9.63;71.06
51081;BME280;37130;55.670;37.596;2023-10-19T07:50:18;98457.38;;;9.13;71.58
51081;BME280;37130;55.670;37.596;2023-10-19T07:52:50;98500.34;;;9.46;71.24
51081;BME280;37130;55.670;37.596;2023-10-19T07:55:20;98554.19;;;9.87;70.56
51081;BME280;37130;55.670;37.596;2023-10-19T07:57:49;98552.97;;;9.93;70.04
51081;BME280;37130;55.670;37.596;2023-10-19T08:00:21;98556.25;;;10.11;70.56
51081;BME280;37130;55.670;37.596;2023-10-19T08:02:51;98506.50;;;9.89;69.80
51081;BME280;37130;55.670;37.596;2023-10-19T08:05:21;98549.84;;;10.29;68.67
51081;BME280;37130;55.670;37.596;2023-10-19T08:07:49;98552.59;;;10.28;69.61
51081;BME280;37130;55.670;37.596;2023-10-19T08:10:18;98552.28;;;10.18;68.52
51081;BME280;37130;55.670;37.596;2023-10-19T08:12:47;98553.25;;;10.03;69.28
51081;BME280;37130;55.670;37.596;2023-10-19T08:15:16;98564.13;;;9.98;69.53
51081;BME280;37130;55.670;37.596;2023-10-19T08:17:46;98560.25;;;9.90;69.30
51081;BME280;37130;55.670;37.596;2023-10-19T08:20:17;98561.00;;;9.77;70.30
51081;BME280;37130;55.670;37.596;2023-10-19T08:22:52;98558.25;;;9.64;70.32
51081;BME280;37130;55.670;37.596;2023-10-19T08:25:20;98558.81;;;9.55;70.91
51081;BME280;37130;55.670;37.596;2023-10-19T08:27:50;98560.09;;;9.48;70.71
51081;BME280;37130;55.670;37.596;2023-10-19T08:30:19;98562.84;;;9.61;71.73
51081;BME280;37130;55.670;37.596;2023-10-19T08:32:51;98560.25;;;9.75;70.87
51081;BME280;37130;55.670;37.596;2023-10-19T08:35:20;98547.69;;;9.79;71.30
51081;BME280;37130;55.670;37.596;2023-10-19T08:37:54;98562.41;;;9.97;72.27
51081;BME280;37130;55.670;37.596;2023-10-19T08:40:25;98562.22;;;10.15;71.81
51081;BME280;37130;55.670;37.596;2023-10-19T08:42:54;98562.59;;;10.23;71.23
51081;BME280;37130;55.670;37.596;2023-10-19T08:45:22;98553.91;;;10.35;70.50
51081;BME280;37130;55.670;37.596;2023-10-19T08:47:58;98572.41;;;10.49;69.68
51081;BME280;37130;55.670;37.596;2023-10-19T08:50:33;98568.63;;;10.53;70.26
51081;BME280;37130;55.670;37.596;2023-10-19T08:53:06;98567.75;;;10.53;69.83
51081;BME280;37130;55.670;37.596;2023-10-19T08:55:40;98573.94;;;10.25;71.27
51081;BME280;37130;55.670;37.596;2023-10-19T08:58:16;98574.88;;;10.38;69.70
51081;BME280;37130;55.670;37.596;2023-10-19T09:00:50;98573.56;;;10.31;69.08
51081;BME280;37130;55.670;37.596;2023-10-19T09:03:25;98572.44;;;10.35;69.95
51081;BME280;37130;55.670;37.596;2023-10-19T09:05:54;98574.97;;;10.37;68.51
51081;BME280;37130;55.670;37.596;2023-10-19T09:08:24;98565.88;;;10.26;68.05
51081;BME280;37130;55.670;37.596;2023-10-19T09:10:52;98577.72;;;10.06;68.71
51081;BME280;37130;55.670;37.596;2023-10-19T09:13:24;98580.00;;;9.98;68.19
51081;BME280;37130;55.670;37.596;2023-10-19T09:15:53;98582.16;;;9.92;68.37
51081;BME280;37130;55.670;37.596;2023-10-19T09:18:23;98584.03;;;9.90;69.66
51081;BME280;37130;55.670;37.596;2023-10-19T09:20:52;98581.97;;;9.95;69.34
51081;BME280;37130;55.670;37.596;2023-10-19T09:23:25;98586.13;;;9.99;69.18
51081;BME280;37130;55.670;37.596;2023-10-19T09:25:58;98592.09;;;9.88;69.05
51081;BME280;37130;55.670;37.596;2023-10-19T09:28:36;98497.72;;;9.46;69.49
51081;BME280;37130;55.670;37.596;2023-10-19T09:31:06;98576.69;;;10.09;69.73
51081;BME280;37130;55.670;37.596;2023-10-19T09:33:40;98580.47;;;10.19;69.26
51081;BME280;37130;55.670;37.596;2023-10-19T09:36:10;98578.53;;;10.21;69.00
51081;BME280;37130;55.670;37.596;2023-10-19T09:38:48;98586.47;;;10.50;68.24
51081;BME280;37130;55.670;37.596;2023-10-19T09:41:22;98585.41;;;10.67;68.73
51081;BME280;37130;55.670;37.596;2023-10-19T09:44:00;98506.84;;;10.40;67.75
51081;BME280;37130;55.670;37.596;2023-10-19T09:46:31;98583.56;;;11.09;66.11
51081;BME280;37130;55.670;37.596;2023-10-19T09:48:59;98581.59;;;11.25;65.52
51081;BME280;37130;55.670;37.596;2023-10-19T09:51:27;98539.47;;;11.08;65.43
51081;BME280;37130;55.670;37.596;2023-10-19T09:54:14;98579.91;;;11.37;65.38
51081;BME280;37130;55.670;37.596;2023-10-19T09:57:02;98581.06;;;11.20;65.80
51081;BME280;37130;55.670;37.596;2023-10-19T09:59:40;98579.28;;;10.93;65.71
51081;BME280;37130;55.670;37.596;2023-10-19T10:02:12;98576.72;;;10.65;66.16
51081;BME280;37130;55.670;37.596;2023-10-19T10:04:42;98595.47;;;10.47;67.84
51081;BME280;37130;55.670;37.596;2023-10-19T10:07:14;98484.03;;;9.82;67.03
51081;BME280;37130;55.670;37.596;2023-10-19T10:10:05;98582.81;;;10.24;67.45
51081;BME280;37130;55.670;37.596;2023-10-19T10:12:33;98588.50;;;10.03;67.92
51081;BME280;37130;55.670;37.596;2023-10-19T10:15:05;98552.97;;;9.64;68.78
51081;BME280;37130;55.670;37.596;2023-10-19T10:17:37;98596.03;;;9.81;69.62
51081;BME280;37130;55.670;37.596;2023-10-19T10:23:15;98552.09;;;9.50;68.95
51081;BME280;37130;55.670;37.596;2023-10-19T10:25:45;98498.25;;;9.22;68.75
51081;BME280;37130;55.670;37.596;2023-10-19T10:28:16;98544.00;;;9.67;68.91
51081;BME280;37130;55.670;37.596;2023-10-19T10:31:09;98588.97;;;10.10;68.22
51081;BME280;37130;55.670;37.596;2023-10-19T10:33:38;98583.31;;;10.30;68.27
51081;BME280;37130;55.670;37.596;2023-10-19T10:36:07;98582.91;;;10.51;68.69
51081;BME280;37130;55.670;37.596;2023-10-19T10:38:34;98584.19;;;10.58;67.04
51081;BME280;37130;55.670;37.596;2023-10-19T10:41:05;98590.09;;;10.49;66.79
51081;BME280;37130;55.670;37.596;2023-10-19T10:43:50;98585.75;;;10.48;67.97
51081;BME280;37130;55.670;37.596;2023-10-19T10:46:21;98586.69;;;10.47;67.85
51081;BME280;37130;55.670;37.596;2023-10-19T10:48:49;98533.88;;;10.02;66.86
51081;BME280;37130;55.670;37.596;2023-10-19T10:51:19;98581.13;;;9.94;68.52
51081;BME280;37130;55.670;37.596;2023-10-19T10:53:53;98588.94;;;9.67;68.83
51081;BME280;37130;55.670;37.596;2023-10-19T10:56:22;98533.28;;;8.95;69.00
51081;BME280;37130;55.670;37.596;2023-10-19T10:58:51;98590.00;;;9.04;70.69
51081;BME280;37130;55.670;37.596;2023-10-19T11:01:31;98597.25;;;8.85;71.27
51081;BME280;37130;55.670;37.596;2023-10-19T11:04:10;98594.47;;;8.72;71.44
51081;BME280;37130;55.670;37.596;2023-10-19T11:06:51;98592.53;;;8.60;71.73
51081;BME280;37130;55.670;37.596;2023-10-19T11:09:20;98593.03;;;8.66;72.08
51081;BME280;37130;55.670;37.596;2023-10-19T11:11:48;98494.00;;;8.11;71.88
51081;BME280;37130;55.670;37.596;2023-10-19T11:14:22;98600.44;;;8.60;71.78
51081;BME280;37130;55.670;37.596;2023-10-19T11:16:52;98594.75;;;8.51;72.51
51081;BME280;37130;55.670;37.596;2023-10-19T11:19:19;98593.97;;;8.49;72.61
51081;BME280;37130;55.670;37.596;2023-10-19T11:21:53;98593.28;;;8.46;72.20
51081;BME280;37130;55.670;37.596;2023-10-19T11:24:25;98597.38;;;8.51;73.49
51081;BME280;37130;55.670;37.596;2023-10-19T11:26:53;98599.25;;;8.65;74.48
51081;BME280;37130;55.670;37.596;2023-10-19T11:29:22;98603.50;;;8.68;73.72
51081;BME280;37130;55.670;37.596;2023-10-19T11:32:00;98564.91;;;8.33;73.89
51081;BME280;37130;55.670;37.596;2023-10-19T11:34:28;98567.44;;;8.35;73.36
51081;BME280;37130;55.670;37.596;2023-10-19T11:36:58;98602.97;;;8.45;74.44
51081;BME280;37130;55.670;37.596;2023-10-19T11:39:27;98603.38;;;8.38;74.24
51081;BME280;37130;55.670;37.596;2023-10-19T11:41:56;98594.59;;;8.37;74.88
51081;BME280;37130;55.670;37.596;2023-10-19T11:44:24;98598.00;;;8.23;73.88
51081;BME280;37130;55.670;37.596;2023-10-19T11:46:51;98591.00;;;8.22;73.88
51081;BME280;37130;55.670;37.596;2023-10-19T11:49:19;98595.44;;;8.22;74.70
51081;BME280;37130;55.670;37.596;2023-10-19T11:51:51;98598.59;;;8.28;74.96
51081;BME280;37130;55.670;37.596;2023-10-19T11:54:18;98601.84;;;8.33;74.60
51081;BME280;37130;55.670;37.596;2023-10-19T11:56:46;98583.53;;;8.30;74.94
51081;BME280;37130;55.670;37.596;2023-10-19T11:59:14;98594.59;;;8.37;75.13
51081;BME280;37130;55.670;37.596;2023-10-19T12:01:42;98593.53;;;8.41;75.26
51081;BME280;37130;55.670;37.596;2023-10-19T12:04:10;98492.75;;;7.87;75.52
51081;BME280;37130;55.670;37.596;2023-10-19T12:06:38;98597.09;;;8.56;74.88
51081;BME280;37130;55.670;37.596;2023-10-19T12:09:05;98588.75;;;8.64;75.40
51081;BME280;37130;55.670;37.596;2023-10-19T12:11:42;98600.00;;;8.83;74.88
51081;BME280;37130;55.670;37.596;2023-10-19T12:14:15;98588.84;;;8.94;74.71
51081;BME280;37130;55.670;37.596;2023-10-19T12:16:42;98594.34;;;9.05;74.60
51081;BME280;37130;55.670;37.596;2023-10-19T12:19:10;98578.84;;;8.99;74.42
51081;BME280;37130;55.670;37.596;2023-10-19T12:21:38;98590.66;;;9.08;74.21
51081;BME280;37130;55.670;37.596;2023-10-19T12:24:08;98560.03;;;8.89;73.91
51081;BME280;37130;55.670;37.596;2023-10-19T12:26:36;98604.78;;;9.23;74.33
51081;BME280;37130;55.670;37.596;2023-10-19T12:29:03;98601.19;;;9.24;74.04
51081;BME280;37130;55.670;37.596;2023-10-19T12:31:34;98602.72;;;9.28;72.89
51081;BME280;37130;55.670;37.596;2023-10-19T12:34:02;98599.50;;;9.23;73.21
51081;BME280;37130;55.670;37.596;2023-10-19T12:36:29;98611.69;;;9.25;73.26
51081;BME280;37130;55.670;37.596;2023-10-19T12:39:00;98608.03;;;9.28;73.10
51081;BME280;37130;55.670;37.596;2023-10-19T12:41:28;98602.44;;;9.32;72.58
51081;BME280;37130;55.670;37.596;2023-10-19T12:43:56;98562.66;;;9.05;72.85
51081;BME280;37130;55.670;37.596;2023-10-19T12:46:28;98602.56;;;9.31;73.17
51081;BME280;37130;55.670;37.596;2023-10-19T12:48:57;98610.38;;;9.32;72.70
51081;BME280;37130;55.670;37.596;2023-10-19T12:51:25;98602.88;;;9.25;72.66
51081;BME280;37130;55.670;37.596;2023-10-19T12:53:54;98600.16;;;9.26;73.41
51081;BME280;37130;55.670;37.596;2023-10-19T12:56:22;98546.19;;;8.86;73.83
51081;BME280;37130;55.670;37.596;2023-10-19T12:58:51;98609.31;;;9.20;72.96
51081;BME280;37130;55.670;37.596;2023-10-19T13:01:19;98590.94;;;9.03;72.88
51081;BME280;37130;55.670;37.596;2023-10-19T13:03:48;98606.88;;;9.02;74.29
51081;BME280;37130;55.670;37.596;2023-10-19T13:06:19;98607.56;;;8.89;74.54
51081;BME280;37130;55.670;37.596;2023-10-19T13:08:47;98612.75;;;8.75;74.77
51081;BME280;37130;55.670;37.596;2023-10-19T13:11:15;98605.72;;;8.60;74.26
51081;BME280;37130;55.670;37.596;2023-10-19T13:13:46;98614.13;;;8.50;75.55
51081;BME280;37130;55.670;37.596;2023-10-19T13:16:15;98604.69;;;8.46;76.09
51081;BME280;37130;55.670;37.596;2023-10-19T13:18:44;98543.03;;;8.00;75.53
51081;BME280;37130;55.670;37.596;2023-10-19T13:21:11;98613.00;;;8.39;75.86
51081;BME280;37130;55.670;37.596;2023-10-19T13:23:44;98598.44;;;8.31;76.02